createdAt,value
2022-12-19T00:04:07.539Z,100.00
2022-12-19T00:09:29.766Z,100.00
2022-12-19T00:14:53.990Z,100.00
2022-12-19T00:20:18.724Z,100.00
2022-12-19T00:25:40.572Z,100.00
2022-12-19T00:31:04.404Z,100.00
2022-12-19T00:36:33.924Z,100.00
2022-12-19T00:41:55.698Z,100.00
2022-12-19T00:47:17.560Z,100.00
2022-12-19T00:52:39.354Z,100.00
2022-12-19T00:58:01.142Z,100.00
2022-12-19T01:03:23.556Z,100.00
2022-12-19T01:08:45.510Z,100.00
2022-12-19T01:14:07.346Z,100.00
2022-12-19T01:19:29.282Z,100.00
2022-12-19T01:24:51.175Z,100.00
2022-12-19T01:30:13.287Z,100.00
2022-12-19T01:35:36.388Z,100.00
2022-12-19T01:40:58.292Z,100.00
2022-12-19T01:46:43.571Z,100.00
2022-12-19T01:52:08.902Z,100.00
2022-12-19T01:57:33.747Z,100.00
2022-12-19T02:03:27.851Z,100.00
2022-12-19T02:08:51.156Z,100.00
2022-12-19T02:14:13.223Z,100.00
2022-12-19T02:20:03.033Z,100.00
2022-12-19T02:25:43.701Z,100.00
2022-12-19T02:31:08.184Z,100.00
2022-12-19T02:36:50.810Z,100.00
2022-12-19T02:42:25.158Z,100.00
2022-12-19T02:47:49.570Z,100.00
2022-12-19T02:53:13.369Z,100.00
2022-12-19T02:58:56.524Z,100.00
2022-12-19T03:04:30.505Z,100.00
2022-12-19T03:09:56.784Z,100.00
2022-12-19T03:15:19.995Z,100.00
2022-12-19T03:20:51.977Z,100.00
2022-12-19T03:26:22.568Z,100.00
2022-12-19T03:31:46.363Z,100.00
2022-12-19T03:37:14.376Z,100.00
2022-12-19T03:42:39.608Z,100.00
2022-12-19T03:48:09.983Z,100.00
2022-12-19T03:53:34.486Z,100.00
2022-12-19T03:59:04.836Z,100.00
2022-12-19T04:04:27.372Z,100.00
2022-12-19T04:09:50.645Z,100.00
2022-12-19T04:15:12.980Z,100.00
2022-12-19T04:20:38.114Z,100.00
2022-12-19T04:26:03.411Z,100.00
2022-12-19T04:31:25.419Z,100.00
2022-12-19T04:36:48.953Z,100.00
2022-12-19T04:42:10.889Z,100.00
2022-12-19T04:47:32.791Z,100.00
2022-12-19T04:52:57.210Z,100.00
2022-12-19T04:58:22.023Z,100.00
2022-12-19T05:03:44.169Z,100.00
2022-12-19T05:09:06.167Z,100.00
2022-12-19T05:14:28.017Z,100.00
2022-12-19T05:19:49.836Z,100.00
2022-12-19T05:25:11.634Z,100.00
2022-12-19T05:30:33.432Z,100.00
2022-12-19T05:35:55.261Z,100.00
2022-12-19T05:41:19.641Z,100.00
2022-12-19T05:46:41.548Z,100.00
2022-12-19T05:52:03.480Z,100.00
2022-12-19T05:57:25.447Z,100.00
2022-12-19T06:02:47.410Z,100.00
2022-12-19T06:08:09.265Z,100.00
2022-12-19T06:13:32.142Z,100.00
2022-12-19T06:18:54.669Z,100.00
2022-12-19T06:24:16.891Z,100.00
2022-12-19T06:29:38.696Z,100.00
2022-12-19T06:35:04.572Z,100.00
2022-12-19T06:40:26.831Z,100.00
2022-12-19T06:45:49.017Z,100.00
2022-12-19T06:51:10.857Z,100.00
2022-12-19T06:56:36.786Z,100.00
2022-12-19T07:02:18.473Z,100.00
2022-12-19T07:07:40.396Z,100.00
2022-12-19T07:13:02.269Z,100.00
2022-12-19T07:18:24.184Z,98.06
2022-12-19T07:23:46.337Z,96.99
2022-12-19T07:29:10.477Z,89.20
2022-12-19T07:34:33.750Z,84.58
2022-12-19T07:39:55.599Z,85.93
2022-12-19T07:45:17.469Z,76.79
2022-12-19T07:50:39.317Z,73.34
2022-12-19T07:56:01.088Z,85.04
2022-12-19T08:01:23.085Z,92.09
2022-12-19T08:06:45.013Z,91.48
2022-12-19T08:12:07.182Z,91.97
2022-12-19T08:17:29.084Z,90.30
2022-12-19T08:22:50.940Z,87.55
2022-12-19T08:28:12.803Z,74.53
2022-12-19T08:33:35.011Z,62.16
2022-12-19T08:38:56.860Z,61.68
2022-12-19T08:44:18.901Z,59.10
2022-12-19T08:49:40.776Z,58.94
2022-12-19T08:55:02.826Z,55.88
2022-12-19T09:00:24.835Z,55.30
2022-12-19T09:06:03.880Z,53.62
2022-12-19T09:11:28.773Z,55.09
2022-12-19T09:16:50.934Z,53.13
2022-12-19T09:22:12.901Z,53.01
2022-12-19T09:28:01.354Z,51.84
2022-12-19T09:33:16.527Z,55.32
2022-12-19T09:38:38.394Z,53.82
2022-12-19T09:44:15.635Z,56.73
2022-12-19T09:49:43.172Z,55.35
2022-12-19T09:55:24.156Z,55.35
2022-12-19T10:00:59.546Z,56.73
2022-12-19T10:07:12.934Z,60.40
2022-12-19T10:12:45.911Z,64.76
2022-12-19T10:18:13.058Z,64.18
2022-12-19T10:24:06.183Z,67.96
2022-12-19T10:29:50.037Z,69.48
2022-12-19T10:35:14.559Z,69.39
2022-12-19T10:40:49.197Z,70.04
2022-12-19T10:46:17.411Z,69.21
2022-12-19T10:51:39.707Z,69.76
2022-12-19T10:57:27.206Z,69.88
2022-12-19T11:02:51.908Z,71.47
2022-12-19T11:08:20.957Z,71.48
2022-12-19T11:18:35.186Z,70.50
2022-12-19T11:29:41.907Z,71.13
2022-12-19T11:30:59.587Z,71.80
2022-12-19T11:37:06.804Z,71.20
2022-12-19T11:42:37.283Z,71.65
2022-12-19T11:48:08.885Z,72.32
2022-12-19T11:53:40.913Z,71.55
2022-12-19T11:59:18.702Z,71.11
2022-12-19T12:05:08.120Z,70.66
2022-12-19T12:15:06.897Z,72.97
2022-12-19T12:28:01.879Z,74.31
2022-12-19T12:31:07.145Z,75.06
2022-12-19T12:31:42.621Z,74.45
2022-12-19T12:35:46.563Z,74.12
2022-12-19T12:40:58.509Z,75.46
2022-12-19T12:46:26.230Z,75.49
2022-12-19T12:51:49.119Z,76.44
2022-12-19T12:57:39.989Z,76.93
2022-12-19T13:03:07.116Z,77.84
2022-12-19T13:08:38.034Z,78.01
2022-12-19T13:14:00.744Z,78.80
2022-12-19T13:19:29.090Z,78.48
2022-12-19T13:24:53.229Z,78.42
2022-12-19T13:30:16.735Z,79.91
2022-12-19T13:39:04.835Z,81.53
2022-12-19T13:41:39.660Z,82.07
2022-12-19T13:47:01.510Z,82.63
2022-12-19T13:52:23.324Z,82.50
2022-12-19T13:57:53.580Z,83.66
2022-12-19T14:03:20.953Z,84.28
2022-12-19T14:08:45.733Z,84.81
2022-12-19T14:14:25.534Z,85.08
2022-12-19T14:19:52.635Z,85.88
2022-12-19T14:28:15.783Z,87.51
2022-12-19T14:31:25.908Z,88.00
2022-12-19T14:36:52.478Z,88.27
2022-12-19T14:42:16.685Z,89.07
2022-12-19T14:54:04.969Z,88.75
2022-12-19T14:54:22.085Z,89.48
2022-12-19T14:59:05.708Z,90.20
2022-12-19T15:04:53.009Z,89.37
2022-12-19T15:11:05.552Z,91.49
2022-12-19T15:16:02.318Z,90.10
2022-12-19T15:21:24.808Z,92.11
2022-12-19T15:26:50.218Z,91.01
2022-12-19T15:32:16.430Z,91.50
2022-12-19T15:37:38.291Z,91.62
2022-12-19T15:43:00.617Z,91.93
2022-12-19T15:48:22.581Z,92.55
2022-12-19T15:53:44.469Z,93.70
2022-12-19T15:59:21.501Z,92.10
2022-12-19T16:04:44.515Z,91.79
2022-12-19T16:10:07.370Z,91.92
2022-12-19T16:15:31.949Z,93.23
2022-12-19T16:20:55.773Z,92.22
2022-12-19T16:26:33.654Z,91.92
2022-12-19T16:31:55.913Z,91.59
2022-12-19T16:37:17.908Z,93.04
2022-12-19T16:42:39.790Z,91.60
2022-12-19T16:48:01.576Z,92.40
2022-12-19T16:53:23.542Z,92.34
2022-12-19T16:58:45.412Z,91.82
2022-12-19T17:04:07.228Z,93.24
2022-12-19T17:09:29.062Z,93.51
2022-12-19T17:14:50.928Z,93.18
2022-12-19T17:20:21.403Z,92.97
2022-12-19T17:25:43.811Z,92.96
2022-12-19T17:31:24.157Z,93.36
2022-12-19T17:36:46.254Z,93.48
2022-12-19T17:42:18.435Z,93.44
2022-12-19T17:47:40.608Z,93.43
2022-12-19T17:53:02.480Z,93.21
2022-12-19T17:58:24.347Z,92.08
2022-12-19T18:03:47.296Z,92.51
2022-12-19T18:09:24.096Z,92.08
2022-12-19T18:14:46.011Z,92.13
2022-12-19T18:20:32.034Z,91.75
2022-12-19T18:26:00.925Z,91.57
2022-12-19T18:31:25.826Z,91.87
2022-12-19T18:36:48.530Z,91.16
2022-12-19T18:42:20.635Z,90.49
2022-12-19T18:47:49.735Z,90.88
2022-12-19T18:53:15.747Z,91.00
2022-12-19T18:58:37.765Z,91.28
2022-12-19T19:03:59.732Z,90.20
2022-12-19T19:09:21.869Z,90.67
2022-12-19T19:14:44.296Z,90.62
2022-12-19T19:20:06.974Z,90.35
2022-12-19T19:25:28.805Z,90.66
2022-12-19T19:30:52.141Z,90.93
2022-12-19T19:36:23.076Z,90.82
2022-12-19T19:41:44.938Z,90.71
2022-12-19T19:47:06.919Z,90.41
2022-12-19T19:52:28.745Z,90.60
2022-12-19T19:57:50.695Z,91.07
2022-12-19T20:03:18.562Z,90.69
2022-12-19T20:08:44.197Z,90.35
2022-12-19T20:14:06.061Z,89.86
2022-12-19T20:19:27.985Z,89.54
2022-12-19T20:24:49.852Z,89.60
2022-12-19T20:30:12.086Z,88.80
2022-12-19T20:35:33.926Z,88.59
2022-12-19T20:40:55.776Z,89.20
2022-12-19T20:46:20.272Z,88.67
2022-12-19T20:51:42.215Z,88.30
2022-12-19T20:57:04.000Z,87.04
2022-12-19T21:02:25.937Z,87.08
2022-12-19T21:07:47.828Z,87.05
2022-12-19T21:13:09.638Z,87.43
2022-12-19T21:18:31.544Z,86.66
2022-12-19T21:23:54.904Z,86.20
2022-12-19T21:29:16.757Z,85.33
2022-12-19T21:34:38.603Z,85.29
2022-12-19T21:40:00.506Z,85.91
2022-12-19T21:45:22.319Z,85.51
2022-12-19T21:50:44.213Z,86.15
2022-12-19T21:56:12.268Z,85.35
2022-12-19T22:01:34.282Z,85.58
2022-12-19T22:06:56.267Z,86.44
2022-12-19T22:12:18.126Z,87.04
2022-12-19T22:17:39.948Z,86.71
2022-12-19T22:23:01.773Z,87.90
2022-12-19T22:28:23.609Z,87.54
2022-12-19T22:33:46.442Z,88.71
2022-12-19T22:39:13.573Z,88.36
2022-12-19T22:44:35.469Z,89.11
2022-12-19T22:49:57.420Z,88.91
2022-12-19T22:55:19.312Z,89.33
2022-12-19T23:00:42.244Z,88.79
2022-12-19T23:06:04.221Z,89.31
2022-12-19T23:11:33.187Z,89.06
2022-12-19T23:16:55.139Z,88.71
2022-12-19T23:22:17.043Z,89.89
2022-12-19T23:27:40.386Z,90.31
2022-12-19T23:33:02.382Z,89.88
2022-12-19T23:38:24.219Z,90.34
2022-12-19T23:43:46.160Z,91.15
2022-12-19T23:49:08.173Z,91.08
2022-12-19T23:54:30.273Z,91.60
2022-12-19T23:59:52.172Z,92.38
